sensor_id;sensor_type;location;lat;lon;timestamp;pressure;altitude;pressure_sealevel;temperature;humidity
78613;BME280;67933;51.060;3.638;2023-07-13T00:01:43;101635.88;;;13.94;89.58
78613;BME280;67933;51.060;3.638;2023-07-13T00:04:11;101636.19;;;13.87;89.83
78613;BME280;67933;51.060;3.638;2023-07-13T00:06:36;101631.16;;;13.83;90.05
78613;BME280;67933;51.060;3.638;2023-07-13T00:09:02;101636.47;;;13.83;90.26
78613;BME280;67933;51.060;3.638;2023-07-13T00:11:27;101630.72;;;13.75;90.50
78613;BME280;67933;51.060;3.638;2023-07-13T00:13:53;101629.78;;;13.76;90.98
78613;BME280;67933;51.060;3.638;2023-07-13T00:16:19;101626.06;;;13.78;90.85
78613;BME280;67933;51.060;3.638;2023-07-13T00:18:45;101635.97;;;13.76;91.03
78613;BME280;67933;51.060;3.638;2023-07-13T00:21:12;101640.72;;;13.71;91.18
78613;BME280;67933;51.060;3.638;2023-07-13T00:23:40;101638.16;;;13.70;91.24
78613;BME280;67933;51.060;3.638;2023-07-13T00:26:08;101633.41;;;13.75;91.86
78613;BME280;67933;51.060;3.638;2023-07-13T00:28:35;101634.94;;;13.79;91.29
78613;BME280;67933;51.060;3.638;2023-07-13T00:31:01;101634.44;;;13.72;91.50
78613;BME280;67933;51.060;3.638;2023-07-13T00:33:28;101631.75;;;13.72;92.06
78613;BME280;67933;51.060;3.638;2023-07-13T00:35:55;101631.69;;;13.74;92.03
78613;BME280;67933;51.060;3.638;2023-07-13T00:38:20;101635.28;;;13.73;92.25
78613;BME280;67933;51.060;3.638;2023-07-13T00:40:49;101641.22;;;13.78;91.89
78613;BME280;67933;51.060;3.638;2023-07-13T00:43:20;101645.94;;;13.73;91.72
78613;BME280;67933;51.060;3.638;2023-07-13T00:48:13;101636.09;;;13.59;92.29
78613;BME280;67933;51.060;3.638;2023-07-13T00:50:40;101633.94;;;13.66;93.19
78613;BME280;67933;51.060;3.638;2023-07-13T00:53:07;101634.94;;;13.63;92.56
78613;BME280;67933;51.060;3.638;2023-07-13T00:55:33;101635.16;;;13.60;93.19
78613;BME280;67933;51.060;3.638;2023-07-13T00:57:58;101639.78;;;13.57;93.52
78613;BME280;67933;51.060;3.638;2023-07-13T01:00:25;101639.13;;;13.53;93.43
78613;BME280;67933;51.060;3.638;2023-07-13T01:02:51;101636.38;;;13.55;93.80
78613;BME280;67933;51.060;3.638;2023-07-13T01:05:20;101651.66;;;13.51;94.05
78613;BME280;67933;51.060;3.638;2023-07-13T01:07:47;101644.88;;;13.45;94.48
78613;BME280;67933;51.060;3.638;2023-07-13T01:10:14;101645.75;;;13.46;94.52
78613;BME280;67933;51.060;3.638;2023-07-13T01:12:39;101654.78;;;13.43;94.37
78613;BME280;67933;51.060;3.638;2023-07-13T01:15:32;101647.63;;;13.44;94.92
78613;BME280;67933;51.060;3.638;2023-07-13T01:17:51;101640.84;;;13.38;94.96
78613;BME280;67933;51.060;3.638;2023-07-13T01:20:17;101651.50;;;13.38;95.33
78613;BME280;67933;51.060;3.638;2023-07-13T01:22:42;101661.97;;;13.41;95.70
78613;BME280;67933;51.060;3.638;2023-07-13T01:25:08;101657.94;;;13.34;95.51
78613;BME280;67933;51.060;3.638;2023-07-13T01:27:33;101657.16;;;13.32;96.10
78613;BME280;67933;51.060;3.638;2023-07-13T01:29:59;101666.13;;;13.31;96.20
78613;BME280;67933;51.060;3.638;2023-07-13T01:32:29;101664.28;;;13.32;96.77
78613;BME280;67933;51.060;3.638;2023-07-13T01:34:56;101660.53;;;13.36;96.50
78613;BME280;67933;51.060;3.638;2023-07-13T01:37:23;101660.44;;;13.37;96.61
78613;BME280;67933;51.060;3.638;2023-07-13T01:39:49;101670.41;;;13.34;96.91
78613;BME280;67933;51.060;3.638;2023-07-13T01:42:14;101670.31;;;13.35;97.11
78613;BME280;67933;51.060;3.638;2023-07-13T01:44:40;101668.53;;;13.36;96.54
78613;BME280;67933;51.060;3.638;2023-07-13T01:47:06;101664.56;;;13.43;96.85
78613;BME280;67933;51.060;3.638;2023-07-13T01:49:31;101661.63;;;13.47;97.24
78613;BME280;67933;51.060;3.638;2023-07-13T01:51:57;101662.50;;;13.48;96.44
78613;BME280;67933;51.060;3.638;2023-07-13T01:54:22;101667.94;;;13.46;96.96
78613;BME280;67933;51.060;3.638;2023-07-13T01:56:47;101667.94;;;13.46;96.85
78613;BME280;67933;51.060;3.638;2023-07-13T01:59:13;101667.94;;;13.46;97.01
78613;BME280;67933;51.060;3.638;2023-07-13T02:01:38;101663.13;;;13.53;96.89
78613;BME280;67933;51.060;3.638;2023-07-13T02:04:04;101671.63;;;13.60;97.34
78613;BME280;67933;51.060;3.638;2023-07-13T02:06:30;101660.44;;;13.69;96.67
78613;BME280;67933;51.060;3.638;2023-07-13T02:08:55;101654.66;;;13.76;96.38
78613;BME280;67933;51.060;3.638;2023-07-13T02:11:21;101664.09;;;13.82;96.08
78613;BME280;67933;51.060;3.638;2023-07-13T02:13:46;101665.38;;;13.91;95.93
78613;BME280;67933;51.060;3.638;2023-07-13T02:16:11;101661.56;;;13.95;96.13
78613;BME280;67933;51.060;3.638;2023-07-13T02:18:37;101665.28;;;13.92;95.61
78613;BME280;67933;51.060;3.638;2023-07-13T02:21:02;101659.34;;;13.87;96.12
78613;BME280;67933;51.060;3.638;2023-07-13T02:23:28;101664.88;;;13.84;96.10
78613;BME280;67933;51.060;3.638;2023-07-13T02:25:56;101668.66;;;13.80;96.68
78613;BME280;67933;51.060;3.638;2023-07-13T02:28:21;101654.91;;;13.72;96.56
78613;BME280;67933;51.060;3.638;2023-07-13T02:30:47;101653.28;;;13.69;96.54
78613;BME280;67933;51.060;3.638;2023-07-13T02:33:12;101655.25;;;13.66;96.81
78613;BME280;67933;51.060;3.638;2023-07-13T02:35:38;101660.59;;;13.66;97.24
78613;BME280;67933;51.060;3.638;2023-07-13T02:38:03;101655.97;;;13.54;97.00
78613;BME280;67933;51.060;3.638;2023-07-13T02:40:29;101665.06;;;13.49;98.00
78613;BME280;67933;51.060;3.638;2023-07-13T02:42:54;101665.06;;;13.49;97.98
78613;BME280;67933;51.060;3.638;2023-07-13T02:45:20;101670.59;;;13.46;98.27
78613;BME280;67933;51.060;3.638;2023-07-13T02:47:45;101666.28;;;13.44;98.91
78613;BME280;67933;51.060;3.638;2023-07-13T02:50:10;101663.91;;;13.39;98.96
78613;BME280;67933;51.060;3.638;2023-07-13T02:52:36;101661.47;;;13.35;99.17
78613;BME280;67933;51.060;3.638;2023-07-13T02:55:02;101663.03;;;13.39;99.04
78613;BME280;67933;51.060;3.638;2023-07-13T02:57:28;101656.50;;;13.44;99.14
78613;BME280;67933;51.060;3.638;2023-07-13T02:59:53;101660.25;;;13.40;99.47
78613;BME280;67933;51.060;3.638;2023-07-13T03:02:19;101663.34;;;13.33;99.44
78613;BME280;67933;51.060;3.638;2023-07-13T03:04:45;101665.78;;;13.37;99.55
78613;BME280;67933;51.060;3.638;2023-07-13T03:07:10;101660.19;;;13.42;99.14
78613;BME280;67933;51.060;3.638;2023-07-13T03:09:36;101665.59;;;13.40;99.25
78613;BME280;67933;51.060;3.638;2023-07-13T03:12:02;101666.72;;;13.36;99.31
78613;BME280;67933;51.060;3.638;2023-07-13T03:14:28;101676.25;;;13.40;99.57
78613;BME280;67933;51.060;3.638;2023-07-13T03:16:53;101675.81;;;13.48;99.92
78613;BME280;67933;51.060;3.638;2023-07-13T03:19:19;101671.63;;;13.60;99.30
78613;BME280;67933;51.060;3.638;2023-07-13T03:21:45;101670.91;;;13.72;98.70
78613;BME280;67933;51.060;3.638;2023-07-13T03:24:10;101679.31;;;13.80;98.40
78613;BME280;67933;51.060;3.638;2023-07-13T03:26:36;101669.16;;;13.86;98.50
78613;BME280;67933;51.060;3.638;2023-07-13T03:29:01;101665.88;;;13.97;97.91
78613;BME280;67933;51.060;3.638;2023-07-13T03:31:29;101678.75;;;14.05;97.12
78613;BME280;67933;51.060;3.638;2023-07-13T03:33:55;101670.75;;;14.05;96.86
78613;BME280;67933;51.060;3.638;2023-07-13T03:36:26;101673.59;;;14.02;96.98
78613;BME280;67933;51.060;3.638;2023-07-13T03:38:55;101678.44;;;13.95;97.33
78613;BME280;67933;51.060;3.638;2023-07-13T03:41:21;101687.56;;;13.91;97.64
78613;BME280;67933;51.060;3.638;2023-07-13T03:43:47;101694.97;;;13.86;97.82
78613;BME280;67933;51.060;3.638;2023-07-13T03:46:13;101685.06;;;13.88;98.48
78613;BME280;67933;51.060;3.638;2023-07-13T03:48:40;101692.72;;;13.94;97.83
78613;BME280;67933;51.060;3.638;2023-07-13T03:51:08;101687.03;;;14.00;97.73
78613;BME280;67933;51.060;3.638;2023-07-13T03:53:37;101685.53;;;14.10;97.23
78613;BME280;67933;51.060;3.638;2023-07-13T03:56:03;101687.09;;;14.14;97.33
78613;BME280;67933;51.060;3.638;2023-07-13T03:58:39;101693.69;;;14.23;96.92
78613;BME280;67933;51.060;3.638;2023-07-13T04:01:07;101703.13;;;14.29;96.91
78613;BME280;67933;51.060;3.638;2023-07-13T04:03:34;101699.06;;;14.37;96.21
78613;BME280;67933;51.060;3.638;2023-07-13T04:06:00;101707.59;;;14.44;96.16
78613;BME280;67933;51.060;3.638;2023-07-13T04:08:31;101705.25;;;14.53;95.69
78613;BME280;67933;51.060;3.638;2023-07-13T04:10:57;101702.28;;;14.58;95.25
78613;BME280;67933;51.060;3.638;2023-07-13T04:13:23;101711.84;;;14.62;95.11
78613;BME280;67933;51.060;3.638;2023-07-13T04:15:49;101699.81;;;14.69;94.62
78613;BME280;67933;51.060;3.638;2023-07-13T04:18:14;101707.38;;;14.77;94.60
78613;BME280;67933;51.060;3.638;2023-07-13T04:20:40;101702.59;;;14.82;94.61
78613;BME280;67933;51.060;3.638;2023-07-13T04:23:05;101708.63;;;14.85;94.29
78613;BME280;67933;51.060;3.638;2023-07-13T04:25:30;101707.75;;;14.85;94.20
78613;BME280;67933;51.060;3.638;2023-07-13T04:27:56;101714.91;;;14.84;94.19
78613;BME280;67933;51.060;3.638;2023-07-13T04:30:22;101717.13;;;14.92;93.70
78613;BME280;67933;51.060;3.638;2023-07-13T04:32:48;101713.75;;;14.88;93.82
78613;BME280;67933;51.060;3.638;2023-07-13T04:35:13;101708.25;;;14.91;94.19
78613;BME280;67933;51.060;3.638;2023-07-13T04:37:40;101718.84;;;14.93;93.22
78613;BME280;67933;51.060;3.638;2023-07-13T04:40:06;101724.66;;;14.99;92.85
78613;BME280;67933;51.060;3.638;2023-07-13T04:42:31;101720.16;;;15.00;93.08
78613;BME280;67933;51.060;3.638;2023-07-13T04:44:59;101729.03;;;15.00;93.38
78613;BME280;67933;51.060;3.638;2023-07-13T04:47:25;101727.78;;;15.06;92.76
78613;BME280;67933;51.060;3.638;2023-07-13T04:49:50;101722.28;;;15.09;92.81
78613;BME280;67933;51.060;3.638;2023-07-13T04:52:15;101729.22;;;15.12;92.64
78613;BME280;67933;51.060;3.638;2023-07-13T04:54:41;101727.22;;;15.15;92.42
78613;BME280;67933;51.060;3.638;2023-07-13T04:57:07;101733.22;;;15.19;92.19
78613;BME280;67933;51.060;3.638;2023-07-13T04:59:33;101717.66;;;15.25;91.73
78613;BME280;67933;51.060;3.638;2023-07-13T05:01:58;101723.88;;;15.26;91.78
78613;BME280;67933;51.060;3.638;2023-07-13T05:04:24;101728.94;;;15.30;91.45
78613;BME280;67933;51.060;3.638;2023-07-13T05:06:49;101721.56;;;15.34;91.09
78613;BME280;67933;51.060;3.638;2023-07-13T05:09:15;101732.25;;;15.34;91.34
78613;BME280;67933;51.060;3.638;2023-07-13T05:11:40;101732.94;;;15.37;91.40
78613;BME280;67933;51.060;3.638;2023-07-13T05:14:06;101732.44;;;15.45;90.60
78613;BME280;67933;51.060;3.638;2023-07-13T05:16:31;101739.06;;;15.54;90.34
78613;BME280;67933;51.060;3.638;2023-07-13T05:18:57;101740.38;;;15.61;90.62
78613;BME280;67933;51.060;3.638;2023-07-13T05:21:23;101744.28;;;15.69;89.91
78613;BME280;67933;51.060;3.638;2023-07-13T05:23:49;101744.06;;;15.72;89.58
78613;BME280;67933;51.060;3.638;2023-07-13T05:26:15;101754.59;;;15.75;89.66
78613;BME280;67933;51.060;3.638;2023-07-13T05:28:41;101752.47;;;15.81;88.87
78613;BME280;67933;51.060;3.638;2023-07-13T05:31:08;101754.00;;;15.85;89.16
78613;BME280;67933;51.060;3.638;2023-07-13T05:33:34;101756.94;;;15.80;89.33
78613;BME280;67933;51.060;3.638;2023-07-13T05:35:59;101759.97;;;15.88;88.82
78613;BME280;67933;51.060;3.638;2023-07-13T05:38:26;101755.50;;;15.89;88.87
78613;BME280;67933;51.060;3.638;2023-07-13T05:40:53;101762.66;;;16.02;88.95
78613;BME280;67933;51.060;3.638;2023-07-13T05:43:20;101768.44;;;16.09;88.09
78613;BME280;67933;51.060;3.638;2023-07-13T05:45:46;101759.69;;;16.20;88.30
78613;BME280;67933;51.060;3.638;2023-07-13T05:48:11;101769.88;;;16.27;87.24
78613;BME280;67933;51.060;3.638;2023-07-13T05:50:37;101765.28;;;16.29;86.83
78613;BME280;67933;51.060;3.638;2023-07-13T05:53:03;101780.09;;;16.35;87.14
78613;BME280;67933;51.060;3.638;2023-07-13T05:55:28;101777.13;;;16.39;86.62
78613;BME280;67933;51.060;3.638;2023-07-13T05:57:54;101783.69;;;16.48;86.38
78613;BME280;67933;51.060;3.638;2023-07-13T06:00:19;101772.06;;;16.62;86.11
78613;BME280;67933;51.060;3.638;2023-07-13T06:02:45;101775.31;;;16.79;85.03
78613;BME280;67933;51.060;3.638;2023-07-13T06:05:10;101777.47;;;16.87;83.95
78613;BME280;67933;51.060;3.638;2023-07-13T06:07:36;101779.59;;;16.95;84.62
78613;BME280;67933;51.060;3.638;2023-07-13T06:10:01;101782.16;;;16.96;83.30
78613;BME280;67933;51.060;3.638;2023-07-13T06:12:27;101790.22;;;17.09;83.64
78613;BME280;67933;51.060;3.638;2023-07-13T06:14:52;101787.22;;;17.26;83.07
78613;BME280;67933;51.060;3.638;2023-07-13T06:17:18;101791.59;;;17.40;82.86
78613;BME280;67933;51.060;3.638;2023-07-13T06:19:43;101797.19;;;17.62;82.60
78613;BME280;67933;51.060;3.638;2023-07-13T06:22:09;101801.91;;;17.71;81.29
78613;BME280;67933;51.060;3.638;2023-07-13T06:24:34;101799.41;;;17.68;81.49
78613;BME280;67933;51.060;3.638;2023-07-13T06:27:00;101804.88;;;17.66;81.06
78613;BME280;67933;51.060;3.638;2023-07-13T06:29:25;101802.84;;;17.70;80.75
78613;BME280;67933;51.060;3.638;2023-07-13T06:31:50;101795.16;;;17.89;79.80
78613;BME280;67933;51.060;3.638;2023-07-13T06:34:16;101809.47;;;18.14;78.87
78613;BME280;67933;51.060;3.638;2023-07-13T06:36:41;101799.38;;;18.17;78.66
78613;BME280;67933;51.060;3.638;2023-07-13T06:39:07;101797.59;;;18.29;78.92
78613;BME280;67933;51.060;3.638;2023-07-13T06:41:32;101800.28;;;18.29;78.58
78613;BME280;67933;51.060;3.638;2023-07-13T06:43:58;101792.03;;;18.67;76.80
78613;BME280;67933;51.060;3.638;2023-07-13T06:46:24;101793.88;;;19.12;75.12
78613;BME280;67933;51.060;3.638;2023-07-13T06:48:50;101795.69;;;19.90;72.64
78613;BME280;67933;51.060;3.638;2023-07-13T06:51:16;101805.66;;;20.21;70.34
78613;BME280;67933;51.060;3.638;2023-07-13T06:53:41;101802.09;;;20.32;68.94
78613;BME280;67933;51.060;3.638;2023-07-13T06:56:09;101801.25;;;20.31;69.63
78613;BME280;67933;51.060;3.638;2023-07-13T06:58:35;101800.09;;;20.77;67.17
78613;BME280;67933;51.060;3.638;2023-07-13T07:01:00;101800.69;;;21.01;65.88
78613;BME280;67933;51.060;3.638;2023-07-13T07:03:26;101799.25;;;21.18;64.80
78613;BME280;67933;51.060;3.638;2023-07-13T07:05:51;101793.81;;;21.39;64.96
78613;BME280;67933;51.060;3.638;2023-07-13T07:08:17;101805.41;;;21.91;62.71
78613;BME280;67933;51.060;3.638;2023-07-13T07:10:42;101796.78;;;21.66;61.80
78613;BME280;67933;51.060;3.638;2023-07-13T07:13:08;101800.72;;;21.62;62.83
78613;BME280;67933;51.060;3.638;2023-07-13T07:15:34;101789.13;;;22.21;61.29
78613;BME280;67933;51.060;3.638;2023-07-13T07:18:00;101803.78;;;22.47;61.36
78613;BME280;67933;51.060;3.638;2023-07-13T07:20:25;101798.91;;;22.03;59.90
78613;BME280;67933;51.060;3.638;2023-07-13T07:22:52;101796.25;;;22.22;59.72
78613;BME280;67933;51.060;3.638;2023-07-13T07:25:17;101796.69;;;21.87;59.94
78613;BME280;67933;51.060;3.638;2023-07-13T07:27:43;101810.88;;;21.39;61.85
78613;BME280;67933;51.060;3.638;2023-07-13T07:30:08;101815.09;;;21.11;62.35
78613;BME280;67933;51.060;3.638;2023-07-13T07:32:34;101809.69;;;20.91;63.03
78613;BME280;67933;51.060;3.638;2023-07-13T07:34:59;101811.53;;;20.69;63.89
78613;BME280;67933;51.060;3.638;2023-07-13T07:37:25;101810.03;;;20.97;62.76
78613;BME280;67933;51.060;3.638;2023-07-13T07:39:50;101805.31;;;21.71;62.05
78613;BME280;67933;51.060;3.638;2023-07-13T07:42:16;101816.19;;;21.50;61.13
78613;BME280;67933;51.060;3.638;2023-07-13T07:44:42;101810.94;;;20.66;63.92
78613;BME280;67933;51.060;3.638;2023-07-13T07:47:08;101819.03;;;20.87;62.00
78613;BME280;67933;51.060;3.638;2023-07-13T07:49:35;101816.19;;;21.20;62.04
78613;BME280;67933;51.060;3.638;2023-07-13T07:52:00;101818.88;;;20.67;62.08
78613;BME280;67933;51.060;3.638;2023-07-13T07:54:26;101829.38;;;21.23;60.92
78613;BME280;67933;51.060;3.638;2023-07-13T07:56:51;101827.72;;;21.32;59.72
78613;BME280;67933;51.060;3.638;2023-07-13T07:59:17;101826.41;;;20.64;61.41
78613;BME280;67933;51.060;3.638;2023-07-13T08:01:42;101823.81;;;21.45;59.24
78613;BME280;67933;51.060;3.638;2023-07-13T08:04:08;101824.00;;;21.54;58.65
78613;BME280;67933;51.060;3.638;2023-07-13T08:06:34;101818.28;;;21.77;58.36
78613;BME280;67933;51.060;3.638;2023-07-13T08:09:00;101814.28;;;21.41;59.33
78613;BME280;67933;51.060;3.638;2023-07-13T08:11:26;101830.53;;;21.21;60.06
78613;BME280;67933;51.060;3.638;2023-07-13T08:13:52;101834.63;;;20.83;59.31
78613;BME280;67933;51.060;3.638;2023-07-13T08:16:17;101837.78;;;21.20;58.49
78613;BME280;67933;51.060;3.638;2023-07-13T08:18:43;101819.69;;;22.12;57.44
78613;BME280;67933;51.060;3.638;2023-07-13T08:21:08;101817.72;;;21.43;58.03
78613;BME280;67933;51.060;3.638;2023-07-13T08:23:35;101825.50;;;21.67;58.61
78613;BME280;67933;51.060;3.638;2023-07-13T08:26:01;101825.00;;;21.83;57.42
78613;BME280;67933;51.060;3.638;2023-07-13T08:28:27;101824.56;;;22.95;53.45
78613;BME280;67933;51.060;3.638;2023-07-13T08:30:53;101839.09;;;22.65;53.72
78613;BME280;67933;51.060;3.638;2023-07-13T08:33:20;101821.75;;;24.35;49.34
78613;BME280;67933;51.060;3.638;2023-07-13T08:35:49;101817.03;;;25.42;46.84
78613;BME280;67933;51.060;3.638;2023-07-13T08:38:15;101820.25;;;25.37;46.58
78613;BME280;67933;51.060;3.638;2023-07-13T08:40:42;101814.16;;;23.47;49.74
78613;BME280;67933;51.060;3.638;2023-07-13T08:43:22;101816.16;;;23.91;48.19
78613;BME280;67933;51.060;3.638;2023-07-13T08:45:53;101805.53;;;25.22;47.22
78613;BME280;67933;51.060;3.638;2023-07-13T08:48:27;101820.03;;;25.05;46.36
78613;BME280;67933;51.060;3.638;2023-07-13T08:51:09;101821.97;;;26.22;44.42
78613;BME280;67933;51.060;3.638;2023-07-13T08:53:43;101814.19;;;26.27;42.40
78613;BME280;67933;51.060;3.638;2023-07-13T08:56:17;101818.03;;;26.09;41.10
78613;BME280;67933;51.060;3.638;2023-07-13T08:58:44;101824.78;;;27.28;40.86
78613;BME280;67933;51.060;3.638;2023-07-13T09:06:40;101825.94;;;25.52;43.91
78613;BME280;67933;51.060;3.638;2023-07-13T09:14:45;101818.88;;;24.72;47.12
78613;BME280;67933;51.060;3.638;2023-07-13T09:17:20;101822.81;;;25.39;44.77
78613;BME280;67933;51.060;3.638;2023-07-13T09:19:54;101820.50;;;24.82;45.21
78613;BME280;67933;51.060;3.638;2023-07-13T09:22:22;101827.09;;;26.25;43.08
78613;BME280;67933;51.060;3.638;2023-07-13T09:25:13;101819.09;;;26.24;41.98
78613;BME280;67933;51.060;3.638;2023-07-13T09:27:45;101823.84;;;25.72;41.58
78613;BME280;67933;51.060;3.638;2023-07-13T09:32:50;101833.47;;;26.58;41.98
78613;BME280;67933;51.060;3.638;2023-07-13T09:35:20;101818.47;;;26.30;41.15
78613;BME280;67933;51.060;3.638;2023-07-13T09:37:46;101824.44;;;26.50;41.46
78613;BME280;67933;51.060;3.638;2023-07-13T09:40:22;101815.28;;;26.83;41.17
78613;BME280;67933;51.060;3.638;2023-07-13T09:42:52;101822.09;;;26.79;40.95
78613;BME280;67933;51.060;3.638;2023-07-13T09:45:29;101821.91;;;26.80;41.28
78613;BME280;67933;51.060;3.638;2023-07-13T09:48:12;101810.81;;;27.31;39.41
78613;BME280;67933;51.060;3.638;2023-07-13T09:50:38;101814.06;;;27.18;39.07
78613;BME280;67933;51.060;3.638;2023-07-13T09:53:04;101817.81;;;27.33;40.19
78613;BME280;67933;51.060;3.638;2023-07-13T09:55:40;101810.69;;;27.79;38.55
78613;BME280;67933;51.060;3.638;2023-07-13T10:00:35;101829.53;;;27.34;39.66
78613;BME280;67933;51.060;3.638;2023-07-13T10:03:14;101836.66;;;26.37;41.13
78613;BME280;67933;51.060;3.638;2023-07-13T10:05:43;101827.06;;;26.09;41.44
78613;BME280;67933;51.060;3.638;2023-07-13T10:08:27;101830.75;;;26.00;43.25
78613;BME280;67933;51.060;3.638;2023-07-13T10:11:01;101827.00;;;26.59;40.54
78613;BME280;67933;51.060;3.638;2023-07-13T10:13:36;101840.09;;;26.72;40.55
78613;BME280;67933;51.060;3.638;2023-07-13T10:16:02;101837.69;;;26.44;40.80
78613;BME280;67933;51.060;3.638;2023-07-13T10:18:33;101844.56;;;26.06;41.56
78613;BME280;67933;51.060;3.638;2023-07-13T10:21:11;101840.91;;;25.30;43.02
78613;BME280;67933;51.060;3.638;2023-07-13T10:23:37;101837.41;;;25.38;43.17
78613;BME280;67933;51.060;3.638;2023-07-13T10:26:03;101843.16;;;24.73;43.50
78613;BME280;67933;51.060;3.638;2023-07-13T10:28:33;101847.59;;;23.84;46.32
78613;BME280;67933;51.060;3.638;2023-07-13T10:31:01;101848.94;;;23.14;48.96
78613;BME280;67933;51.060;3.638;2023-07-13T10:33:27;101866.41;;;23.29;48.93
78613;BME280;67933;51.060;3.638;2023-07-13T10:36:11;101883.19;;;23.42;49.26
78613;BME280;67933;51.060;3.638;2023-07-13T10:38:39;101882.59;;;22.14;55.72
78613;BME280;67933;51.060;3.638;2023-07-13T10:41:12;101922.44;;;21.08;63.34
78613;BME280;67933;51.060;3.638;2023-07-13T10:43:46;101924.78;;;19.82;72.75
78613;BME280;67933;51.060;3.638;2023-07-13T10:46:14;101941.13;;;18.50;79.05
78613;BME280;67933;51.060;3.638;2023-07-13T10:48:42;101945.47;;;17.51;84.29
78613;BME280;67933;51.060;3.638;2023-07-13T10:51:10;101947.91;;;17.16;87.63
78613;BME280;67933;51.060;3.638;2023-07-13T10:53:38;101947.81;;;17.18;90.45
78613;BME280;67933;51.060;3.638;2023-07-13T10:58:39;101951.69;;;17.26;86.64
78613;BME280;67933;51.060;3.638;2023-07-13T11:03:32;101943.19;;;17.72;88.39
78613;BME280;67933;51.060;3.638;2023-07-13T11:11:33;101951.00;;;18.50;84.45
78613;BME280;67933;51.060;3.638;2023-07-13T11:14:01;101947.38;;;18.74;81.78
78613;BME280;67933;51.060;3.638;2023-07-13T11:16:45;101945.41;;;19.24;81.46
78613;BME280;67933;51.060;3.638;2023-07-13T11:24:48;101935.50;;;19.71;78.96
78613;BME280;67933;51.060;3.638;2023-07-13T11:27:33;101923.78;;;20.05;75.90
78613;BME280;67933;51.060;3.638;2023-07-13T11:38:41;101906.69;;;22.36;69.05
78613;BME280;67933;51.060;3.638;2023-07-13T11:41:19;101905.13;;;22.43;67.39
78613;BME280;67933;51.060;3.638;2023-07-13T11:43:49;101900.91;;;23.37;66.07
78613;BME280;67933;51.060;3.638;2023-07-13T11:46:27;101890.00;;;24.03;60.37
78613;BME280;67933;51.060;3.638;2023-07-13T11:48:54;101893.03;;;24.27;60.03
78613;BME280;67933;51.060;3.638;2023-07-13T11:51:33;101890.75;;;23.95;57.57
78613;BME280;67933;51.060;3.638;2023-07-13T11:54:23;101890.63;;;23.31;62.63
78613;BME280;67933;51.060;3.638;2023-07-13T11:56:49;101901.31;;;22.65;63.54
78613;BME280;67933;51.060;3.638;2023-07-13T11:59:15;101904.69;;;22.29;64.23
78613;BME280;67933;51.060;3.638;2023-07-13T12:01:46;101893.53;;;21.82;64.99
78613;BME280;67933;51.060;3.638;2023-07-13T12:04:29;101903.97;;;21.66;62.62
78613;BME280;67933;51.060;3.638;2023-07-13T12:07:15;101897.06;;;21.52;66.12
78613;BME280;67933;51.060;3.638;2023-07-13T12:09:42;101895.97;;;21.95;62.30
78613;BME280;67933;51.060;3.638;2023-07-13T12:12:18;101899.97;;;22.21;60.38
78613;BME280;67933;51.060;3.638;2023-07-13T12:14:45;101886.78;;;23.24;60.49
78613;BME280;67933;51.060;3.638;2023-07-13T12:17:20;101883.03;;;24.28;54.94
78613;BME280;67933;51.060;3.638;2023-07-13T12:19:47;101882.06;;;25.17;51.40
78613;BME280;67933;51.060;3.638;2023-07-13T12:22:14;101883.53;;;26.15;52.71
78613;BME280;67933;51.060;3.638;2023-07-13T12:24:41;101877.91;;;26.17;48.91
78613;BME280;67933;51.060;3.638;2023-07-13T12:27:23;101874.31;;;25.74;49.85
78613;BME280;67933;51.060;3.638;2023-07-13T12:29:58;101878.94;;;25.56;47.98
78613;BME280;67933;51.060;3.638;2023-07-13T12:32:24;101880.03;;;25.97;47.78
78613;BME280;67933;51.060;3.638;2023-07-13T12:34:55;101867.91;;;25.06;49.85
78613;BME280;67933;51.060;3.638;2023-07-13T12:37:22;101874.38;;;24.42;52.54
78613;BME280;67933;51.060;3.638;2023-07-13T12:39:48;101869.56;;;24.36;51.40
78613;BME280;67933;51.060;3.638;2023-07-13T12:42:21;101863.19;;;25.59;48.38
78613;BME280;67933;51.060;3.638;2023-07-13T12:47:25;101849.31;;;27.19;46.96
78613;BME280;67933;51.060;3.638;2023-07-13T12:49:55;101858.75;;;26.26;45.50
78613;BME280;67933;51.060;3.638;2023-07-13T12:52:29;101865.63;;;24.48;51.56
78613;BME280;67933;51.060;3.638;2023-07-13T12:55:27;101864.41;;;24.15;50.79
78613;BME280;67933;51.060;3.638;2023-07-13T12:57:58;101863.31;;;25.32;53.00
78613;BME280;67933;51.060;3.638;2023-07-13T13:00:34;101853.72;;;26.80;46.97
78613;BME280;67933;51.060;3.638;2023-07-13T13:03:11;101847.34;;;28.47;43.20
78613;BME280;67933;51.060;3.638;2023-07-13T13:05:42;101854.28;;;27.87;43.38
78613;BME280;67933;51.060;3.638;2023-07-13T13:08:11;101853.06;;;27.18;41.10
78613;BME280;67933;51.060;3.638;2023-07-13T13:10:36;101863.22;;;26.43;42.82
78613;BME280;67933;51.060;3.638;2023-07-13T13:13:02;101854.47;;;26.24;42.72
78613;BME280;67933;51.060;3.638;2023-07-13T13:15:28;101867.34;;;24.49;45.81
78613;BME280;67933;51.060;3.638;2023-07-13T13:17:55;101861.38;;;24.99;46.32
78613;BME280;67933;51.060;3.638;2023-07-13T13:20:21;101865.50;;;24.85;46.48
78613;BME280;67933;51.060;3.638;2023-07-13T13:22:47;101853.09;;;25.52;41.82
78613;BME280;67933;51.060;3.638;2023-07-13T13:25:13;101855.16;;;25.32;44.74
78613;BME280;67933;51.060;3.638;2023-07-13T13:27:42;101858.69;;;25.50;42.04
78613;BME280;67933;51.060;3.638;2023-07-13T13:30:16;101853.69;;;25.12;41.02
78613;BME280;67933;51.060;3.638;2023-07-13T13:32:46;101863.44;;;26.08;41.18
78613;BME280;67933;51.060;3.638;2023-07-13T13:35:16;101850.34;;;26.86;40.66
78613;BME280;67933;51.060;3.638;2023-07-13T13:37:41;101859.91;;;26.90;40.95
78613;BME280;67933;51.060;3.638;2023-07-13T13:40:14;101847.25;;;26.81;39.80